TIL weather

Cheadle Airport
Cheadle, Alberta, Canada

Public forecast

Using degrees Celsius for public forecast. Weather courtesy of forecast.io.

Closest aviation weather report (METAR) to Cheadle Airport

Closest report is Calgary International Airport, 15.3 nm (28.4 km) WNW. Retrieved 2019/12/09 18:00 UTC (4 minutes ago):

CYYC 091800Z 06008KT 3SM -SN OVC015 M07/M08 A3004 RMK SN1SC7 SLP239

Closest aviation forecast (TAF) to Cheadle Airport

Closest forecast is Calgary International Airport, 15.3 nm (28.4 km) WNW. Retrieved 2019/12/09 18:39 UTC (0 seconds ago):

TAF CYYC 091738Z 0918/1018 04006KT P6SM -SN SCT040 BKN080 TEMPO 0918/1002 21/2SM -SN SCT020 OVC040 BECMG 1000/1002 22006KT FM100200 22006KT P6SM SCT020 BKN040 TEMPO 1002/1006 5SM -SN FEW006 BKN020 FM100600 28005KT P6SM SCT020 TEMPO 1006/1012 BKN020 FM101200 30005KT P6SM FEW080 FM101600 31008KT P6SM BKN080 RMK NXT FCST BY 092100Z